Time;durP1;ratioP1;P1;durP2;ratioP2;P2;SDS_P1;SDS_P2;PMS_P1;PMS_P2;Temp;Humidity;BMP_temperature;BMP_pressure;BME280_temperature;BME280_humidity;BME280_pressure;Samples;Min_cycle;Max_cycle;Signal;HPM_P1;HPM_P2
2022/10/07 00:00:26;;;;;;;14.07;3.20;;;11.80;99.90;;;;;;4077975;29;20255;-91
2022/10/07 00:02:27;;;;;;;16.65;2.95;;;11.70;99.90;;;;;;4074833;29;20203;-92
2022/10/07 00:04:28;;;;;;;20.60;3.28;;;11.70;99.90;;;;;;4080143;29;20202;-90
2022/10/07 00:06:28;;;;;;;21.42;3.20;;;11.70;99.90;;;;;;4081695;28;20212;-92
2022/10/07 00:08:29;;;;;;;18.08;3.58;;;11.70;99.90;;;;;;4094910;29;20175;-91
2022/10/07 00:10:30;;;;;;;29.25;3.88;;;11.70;99.90;;;;;;4082273;29;20172;-93
2022/10/07 00:12:32;;;;;;;20.77;3.42;;;11.70;99.90;;;;;;4097091;29;20190;-92
2022/10/07 00:14:32;;;;;;;14.20;2.88;;;11.70;99.90;;;;;;4081970;29;20170;-91
2022/10/07 00:16:39;;;;;;;16.85;3.35;;;11.60;99.90;;;;;;4079061;29;20294;-93
2022/10/07 00:18:40;;;;;;;21.38;3.72;;;11.70;99.90;;;;;;4082300;29;20219;-92
2022/10/07 00:20:41;;;;;;;16.02;3.13;;;11.70;99.90;;;;;;4080362;29;20208;-94
2022/10/07 00:22:42;;;;;;;19.25;3.72;;;11.70;99.90;;;;;;4077838;29;20175;-93
2022/10/07 00:24:43;;;;;;;14.32;3.22;;;11.80;99.90;;;;;;4088704;29;20223;-92
2022/10/07 00:26:43;;;;;;;12.60;3.13;;;11.80;99.90;;;;;;4055895;29;20200;-93
2022/10/07 00:28:45;;;;;;;15.43;3.33;;;11.80;99.90;;;;;;4088382;29;20164;-96
2022/10/07 00:30:46;;;;;;;23.77;3.22;;;11.80;99.90;;;;;;4071437;29;20244;-92
2022/10/07 00:32:46;;;;;;;19.90;3.28;;;11.80;99.90;;;;;;4086507;29;20167;-92
2022/10/07 00:34:47;;;;;;;19.05;2.97;;;11.80;99.90;;;;;;4057541;29;20625;-91
2022/10/07 00:36:50;;;;;;;16.95;3.28;;;11.80;99.90;;;;;;4072201;29;20301;-93
2022/10/07 00:38:54;;;;;;;16.77;3.03;;;11.70;99.90;;;;;;4072039;29;20179;-92
2022/10/07 00:40:55;;;;;;;19.00;2.95;;;11.60;99.90;;;;;;4071398;29;20238;-95
2022/10/07 00:42:56;;;;;;;18.67;3.17;;;11.60;99.90;;;;;;4072474;29;20236;-95
2022/10/07 00:44:57;;;;;;;17.15;2.85;;;11.60;99.90;;;;;;4070050;29;20196;-92
2022/10/07 00:47:14;;;;;;;15.63;3.00;;;11.60;99.90;;;;;;4070858;29;20191;-95
2022/10/07 00:49:16;;;;;;;15.25;3.47;;;11.70;99.90;;;;;;4072927;29;20230;-96
2022/10/07 00:51:17;;;;;;;19.25;3.40;;;11.60;99.90;;;;;;4072883;29;20216;-96
2022/10/07 00:53:19;;;;;;;14.85;3.28;;;11.60;99.90;;;;;;4072813;29;20183;-96
2022/10/07 00:55:23;;;;;;;16.73;3.00;;;11.60;99.90;;;;;;4072848;29;20207;-96
2022/10/07 00:57:28;;;;;;;13.15;3.10;;;11.70;99.90;;;;;;4073360;29;20184;-91
2022/10/07 00:59:30;;;;;;;20.23;3.83;;;11.60;99.90;;;;;;4074126;29;20164;-96
2022/10/07 01:01:31;;;;;;;18.23;3.33;;;11.60;99.90;;;;;;4073738;29;20188;-96
2022/10/07 01:03:34;;;;;;;17.63;2.70;;;11.60;99.90;;;;;;4073461;29;20256;-92
2022/10/07 01:05:35;;;;;;;18.70;2.90;;;11.60;99.90;;;;;;4072946;29;20183;-96
2022/10/07 01:07:38;;;;;;;21.77;3.15;;;11.50;99.90;;;;;;4073958;29;20224;-91
2022/10/07 01:09:38;;;;;;;17.17;3.33;;;11.50;99.90;;;;;;4073011;29;20772;-92
2022/10/07 01:11:58;;;;;;;18.52;3.10;;;11.40;99.90;;;;;;4061185;29;20177;-96
2022/10/07 01:14:32;;;;;;;14.32;2.97;;;11.50;99.90;;;;;;4074934;29;20177;-95
2022/10/07 01:16:46;;;;;;;22.25;2.95;;;11.60;99.90;;;;;;4075260;29;20227;-96
2022/10/07 01:18:56;;;;;;;32.70;3.80;;;11.40;99.90;;;;;;4076324;29;20180;-96
2022/10/07 01:21:13;;;;;;;20.38;2.88;;;11.40;99.90;;;;;;4072883;29;20196;-91
2022/10/07 01:23:28;;;;;;;17.30;2.70;;;11.40;99.90;;;;;;4073248;29;20186;-92
2022/10/07 01:25:45;;;;;;;13.32;2.67;;;11.30;99.90;;;;;;4074668;29;20186;-94
2022/10/07 01:27:51;;;;;;;21.98;3.40;;;11.30;99.90;;;;;;4072558;29;20236;-96
2022/10/07 01:30:00;;;;;;;26.70;3.72;;;11.30;99.90;;;;;;4072252;29;20199;-93
2022/10/07 01:32:11;;;;;;;22.08;3.03;;;11.30;99.90;;;;;;4072007;29;20659;-94
2022/10/07 01:34:13;;;;;;;14.05;2.75;;;11.30;99.90;;;;;;4072970;29;20176;-91
2022/10/07 01:36:20;;;;;;;18.58;3.47;;;11.30;99.90;;;;;;4071365;29;20216;-96
2022/10/07 01:38:25;;;;;;;16.95;2.90;;;11.20;99.90;;;;;;4072578;29;20183;-93
2022/10/07 01:40:38;;;;;;;21.48;3.75;;;11.30;99.90;;;;;;4072227;29;20279;-92
2022/10/07 01:42:40;;;;;;;22.85;3.72;;;11.30;99.90;;;;;;4073592;29;20176;-96
2022/10/07 01:44:46;;;;;;;19.95;3.47;;;11.30;99.90;;;;;;4057141;29;20583;-92
2022/10/07 01:46:46;;;;;;;16.60;3.30;;;11.30;99.90;;;;;;4071555;29;20216;-94
2022/10/07 01:48:48;;;;;;;17.73;2.90;;;11.20;99.90;;;;;;4073351;29;20176;-93
2022/10/07 01:50:50;;;;;;;13.43;3.45;;;11.20;99.90;;;;;;4091168;29;20210;-93
2022/10/07 01:52:51;;;;;;;20.90;3.03;;;11.20;99.90;;;;;;4073909;29;20226;-92
2022/10/07 01:55:16;;;;;;;15.88;2.67;;;11.20;99.90;;;;;;4074019;29;20176;-96
2022/10/07 01:57:33;;;;;;;20.15;3.30;;;11.20;99.90;;;;;;4073653;29;20231;-91
2022/10/07 01:59:52;;;;;;;22.50;3.80;;;11.10;99.90;;;;;;4075580;29;20268;-94
2022/10/07 02:02:35;;;;;;;20.35;3.35;;;11.10;99.90;;;;;;4077484;29;20180;-92
2022/10/07 02:04:46;;;;;;;22.50;3.33;;;11.00;99.90;;;;;;4072130;29;20275;-92
2022/10/07 02:07:16;;;;;;;23.23;3.40;;;10.90;99.90;;;;;;4072967;29;20612;-96
2022/10/07 02:09:45;;;;;;;20.58;3.00;;;10.90;99.90;;;;;;4073469;29;20185;-92
2022/10/07 02:11:54;;;;;;;18.73;3.28;;;10.90;99.90;;;;;;4074626;29;20561;-92
2022/10/07 02:14:07;;;;;;;21.05;2.92;;;10.90;99.90;;;;;;4081386;29;20262;-93
2022/10/07 02:16:22;;;;;;;21.48;3.30;;;11.00;99.90;;;;;;4080379;28;20291;-92
2022/10/07 02:18:24;;;;;;;19.92;3.85;;;11.00;99.90;;;;;;4083984;29;20164;-95
2022/10/07 02:20:31;;;;;;;18.80;3.10;;;11.00;99.90;;;;;;4083385;28;20192;-92
2022/10/07 02:22:34;;;;;;;19.67;3.25;;;10.90;99.90;;;;;;4073700;29;20257;-92
2022/10/07 02:24:38;;;;;;;20.67;3.55;;;10.90;99.90;;;;;;4075449;29;20180;-92
2022/10/07 02:26:42;;;;;;;15.18;3.05;;;10.90;99.90;;;;;;4085394;28;20156;-93
2022/10/07 02:28:45;;;;;;;16.45;3.10;;;10.90;99.90;;;;;;4083391;29;20200;-92
2022/10/07 02:30:52;;;;;;;16.00;2.90;;;11.00;99.90;;;;;;4081256;29;20192;-92
2022/10/07 02:32:58;;;;;;;25.27;3.13;;;10.90;99.90;;;;;;4082298;29;20256;-93
2022/10/07 02:35:04;;;;;;;21.77;3.22;;;10.90;99.90;;;;;;4085889;29;20156;-95
2022/10/07 02:37:23;;;;;;;17.45;2.78;;;10.90;99.90;;;;;;4080559;29;20215;-96
2022/10/07 02:39:24;;;;;;;21.60;2.78;;;10.90;99.90;;;;;;4072952;29;20176;-93
2022/10/07 02:41:42;;;;;;;13.38;3.08;;;10.80;99.90;;;;;;4073223;29;20188;-92
2022/10/07 02:43:55;;;;;;;14.27;3.00;;;10.80;99.90;;;;;;4072525;29;20179;-91
2022/10/07 02:46:23;;;;;;;18.80;2.97;;;10.70;99.90;;;;;;4072605;29;20176;-93
2022/10/07 02:48:29;;;;;;;14.68;2.50;;;10.70;99.90;;;;;;4072179;29;20184;-91
2022/10/07 02:50:37;;;;;;;16.10;3.00;;;10.60;99.90;;;;;;4073585;29;20223;-95
2022/10/07 02:52:40;;;;;;;15.88;2.70;;;10.60;99.90;;;;;;4071508;29;20270;-96
2022/10/07 02:54:48;;;;;;;15.82;2.72;;;10.60;99.90;;;;;;4071238;29;20568;-96
2022/10/07 02:56:50;;;;;;;16.17;2.85;;;10.60;99.90;;;;;;4071600;29;20212;-96
2022/10/07 02:58:51;;;;;;;17.88;2.55;;;10.60;99.90;;;;;;4071100;29;20263;-93
2022/10/07 03:01:04;;;;;;;15.13;2.80;;;10.60;99.90;;;;;;4070869;29;20640;-92
2022/10/07 03:03:05;;;;;;;19.13;2.70;;;10.60;99.90;;;;;;4070296;29;20168;-96
2022/10/07 03:05:19;;;;;;;12.23;2.83;;;10.50;99.90;;;;;;4087044;29;20179;-94
2022/10/07 03:07:20;;;;;;;14.68;2.55;;;10.50;99.90;;;;;;4071174;29;20668;-96
2022/10/07 03:09:21;;;;;;;19.30;3.38;;;10.50;99.90;;;;;;4070224;29;20292;-92
2022/10/07 03:11:23;;;;;;;19.45;3.20;;;10.50;99.90;;;;;;4070492;29;20615;-92
2022/10/07 03:13:25;;;;;;;17.35;2.78;;;10.50;99.90;;;;;;4071800;29;20176;-91
2022/10/07 03:15:34;;;;;;;16.35;2.33;;;10.60;99.90;;;;;;4072309;29;20212;-96
2022/10/07 03:17:34;;;;;;;13.45;2.83;;;10.60;99.90;;;;;;4086167;29;20171;-92
2022/10/07 03:19:36;;;;;;;21.05;3.22;;;10.60;99.90;;;;;;4072172;29;20168;-96
2022/10/07 03:21:40;;;;;;;17.65;2.67;;;10.60;99.90;;;;;;4057534;29;20177;-92
2022/10/07 03:23:42;;;;;;;19.02;2.88;;;10.60;99.90;;;;;;4071382;29;20259;-92
2022/10/07 03:25:49;;;;;;;16.53;2.53;;;10.50;99.90;;;;;;4055586;29;20173;-94
2022/10/07 03:27:50;;;;;;;24.30;3.27;;;10.50;99.90;;;;;;4071596;29;20191;-95
2022/10/07 03:29:53;;;;;;;22.10;3.00;;;10.50;99.90;;;;;;4072437;29;20756;-94
2022/10/07 03:31:54;;;;;;;16.35;2.95;;;10.50;99.90;;;;;;4088390;29;20175;-95
2022/10/07 03:33:56;;;;;;;17.95;2.92;;;10.50;99.90;;;;;;4073322;29;20168;-91
2022/10/07 03:35:56;;;;;;;12.70;2.97;;;10.50;99.90;;;;;;4072119;29;20216;-96
2022/10/07 03:37:57;;;;;;;19.55;3.08;;;10.50;99.90;;;;;;4087910;29;20215;-95
2022/10/07 03:39:58;;;;;;;17.40;2.75;;;10.50;99.90;;;;;;4056182;29;20227;-96
2022/10/07 03:41:59;;;;;;;19.92;3.10;;;10.50;99.90;;;;;;4087547;29;20172;-96
2022/10/07 03:44:00;;;;;;;15.15;3.10;;;10.50;99.90;;;;;;4072454;29;20479;-91
2022/10/07 03:46:03;;;;;;;23.48;2.72;;;10.50;99.90;;;;;;4072439;29;20656;-91
2022/10/07 03:48:06;;;;;;;12.20;2.60;;;10.40;99.90;;;;;;4072160;29;20541;-96
2022/10/07 03:50:08;;;;;;;16.10;3.00;;;10.50;99.90;;;;;;4072379;29;20199;-96
2022/10/07 03:52:09;;;;;;;25.77;3.70;;;10.40;99.90;;;;;;4071932;29;20227;-96
2022/10/07 03:54:10;;;;;;;20.10;3.38;;;10.50;99.90;;;;;;4072748;29;20353;-95
2022/10/07 03:56:12;;;;;;;19.57;3.17;;;10.40;99.90;;;;;;4056671;29;20249;-91
2022/10/07 03:58:15;;;;;;;18.25;3.33;;;10.40;99.90;;;;;;4072349;29;20233;-96
2022/10/07 04:00:19;;;;;;;22.55;3.45;;;10.40;99.90;;;;;;4070096;29;20223;-92
2022/10/07 04:02:24;;;;;;;18.35;3.15;;;10.40;99.90;;;;;;4070145;29;20235;-93
2022/10/07 04:04:26;;;;;;;16.70;2.90;;;10.30;99.90;;;;;;4054840;29;20181;-95
2022/10/07 04:06:28;;;;;;;21.15;3.45;;;10.20;99.90;;;;;;4071068;29;20277;-92
2022/10/07 04:08:31;;;;;;;14.63;2.90;;;10.20;99.90;;;;;;4071133;29;20168;-96
2022/10/07 04:10:33;;;;;;;22.42;3.10;;;10.20;99.90;;;;;;4070989;29;20786;-92
2022/10/07 04:12:34;;;;;;;20.70;2.80;;;10.20;99.90;;;;;;4070786;29;20274;-92
2022/10/07 04:14:35;;;;;;;13.43;3.00;;;10.20;99.90;;;;;;4071298;29;20271;-95
2022/10/07 04:16:37;;;;;;;18.90;3.00;;;10.20;99.90;;;;;;4070189;29;20280;-91
2022/10/07 04:18:41;;;;;;;18.87;2.83;;;10.20;99.90;;;;;;4071933;29;20176;-92
2022/10/07 04:20:43;;;;;;;25.53;3.07;;;10.20;99.90;;;;;;4085941;29;20226;-92
2022/10/07 04:22:45;;;;;;;14.00;2.40;;;10.10;99.90;;;;;;4070093;29;20187;-95
2022/10/07 04:25:32;;;;;;;16.40;2.47;;;10.20;99.90;;;;;;4070440;29;20180;-95
2022/10/07 04:27:07;;;;;;;19.13;2.70;;;10.00;99.90;;;;;;4085165;29;20231;-91
2022/10/07 04:29:08;;;;;;;16.23;3.43;;;10.10;99.90;;;;;;4072779;29;20601;-93
2022/10/07 04:31:10;;;;;;;16.38;2.72;;;10.20;99.90;;;;;;4070260;29;20200;-92
2022/10/07 04:33:14;;;;;;;16.23;2.77;;;10.40;99.90;;;;;;4071267;29;20172;-96
2022/10/07 04:35:16;;;;;;;21.23;3.37;;;10.50;99.90;;;;;;4070708;29;20192;-92
2022/10/07 04:37:17;;;;;;;20.93;3.27;;;10.40;99.90;;;;;;4070332;29;20212;-94
2022/10/07 04:39:19;;;;;;;26.50;3.57;;;10.40;99.90;;;;;;4069647;29;20172;-91
2022/10/07 04:41:26;;;;;;;19.17;2.77;;;10.30;99.90;;;;;;4070416;29;20223;-91
2022/10/07 04:43:32;;;;;;;21.03;3.13;;;10.30;99.90;;;;;;4070412;29;20276;-92
2022/10/07 04:45:39;;;;;;;17.50;2.50;;;10.30;99.90;;;;;;4069481;29;20263;-92
2022/10/07 04:47:44;;;;;;;14.47;2.80;;;10.30;99.90;;;;;;4068901;29;20187;-92
2022/10/07 04:49:44;;;;;;;16.27;2.70;;;10.30;99.90;;;;;;4070540;29;20200;-93
2022/10/07 04:51:46;;;;;;;20.60;2.93;;;10.30;99.90;;;;;;4086173;29;20235;-93
2022/10/07 04:53:51;;;;;;;17.83;2.50;;;10.30;99.90;;;;;;4085787;29;20258;-94
2022/10/07 04:55:53;;;;;;;16.45;2.78;;;10.30;99.90;;;;;;4069259;29;20744;-91
2022/10/07 04:57:56;;;;;;;17.60;2.90;;;10.20;99.90;;;;;;4069873;29;20239;-96
2022/10/07 04:59:57;;;;;;;20.87;2.77;;;10.20;99.90;;;;;;4070452;29;20248;-93
2022/10/07 05:01:57;;;;;;;12.50;3.33;;;10.20;99.90;;;;;;4072213;29;20187;-96
2022/10/07 05:03:58;;;;;;;16.80;3.57;;;10.20;99.90;;;;;;4071186;29;20168;-92
2022/10/07 05:06:02;;;;;;;18.57;2.93;;;10.10;99.90;;;;;;4053527;29;20208;-95
2022/10/07 05:08:04;;;;;;;18.00;3.03;;;10.00;99.90;;;;;;4070206;29;20185;-92
2022/10/07 05:10:05;;;;;;;17.17;2.87;;;10.10;99.90;;;;;;4070065;29;20197;-96
2022/10/07 05:12:06;;;;;;;19.57;3.07;;;10.00;99.90;;;;;;4072665;29;20180;-96
2022/10/07 05:14:06;;;;;;;18.23;3.03;;;10.10;99.90;;;;;;4075512;29;20168;-96
2022/10/07 05:16:10;;;;;;;15.03;2.73;;;10.10;99.90;;;;;;4093649;29;20211;-92
2022/10/07 05:18:17;;;;;;;18.40;3.93;;;10.00;99.90;;;;;;4075666;29;20181;-96
2022/10/07 05:20:18;;;;;;;23.98;3.28;;;10.10;99.90;;;;;;4077118;29;20198;-96
2022/10/07 05:22:19;;;;;;;21.17;3.28;;;10.10;99.90;;;;;;4090160;29;20171;-95
2022/10/07 05:24:20;;;;;;;16.70;3.27;;;10.00;99.90;;;;;;4079597;28;20180;-92
2022/10/07 05:26:21;;;;;;;20.42;3.55;;;10.00;99.90;;;;;;4094961;29;20180;-92
2022/10/07 05:28:31;;;;;;;16.73;3.43;;;10.00;99.90;;;;;;4062303;29;20177;-92
2022/10/07 05:30:32;;;;;;;15.97;3.47;;;10.10;99.90;;;;;;4076747;29;20208;-94
2022/10/07 05:32:33;;;;;;;15.87;3.53;;;10.10;99.90;;;;;;4093058;28;20183;-96
2022/10/07 05:34:34;;;;;;;23.13;3.77;;;10.20;99.90;;;;;;4080012;29;20193;-92
2022/10/07 05:36:35;;;;;;;21.17;4.03;;;10.20;99.90;;;;;;4079554;29;20291;-94
2022/10/07 05:38:37;;;;;;;26.77;4.55;;;10.10;99.90;;;;;;4095626;29;20537;-92
2022/10/07 05:40:38;;;;;;;22.73;4.20;;;10.10;99.90;;;;;;4064267;29;20205;-91
2022/10/07 05:42:39;;;;;;;27.70;4.67;;;10.20;99.90;;;;;;4076848;29;20187;-96
2022/10/07 05:44:45;;;;;;;29.50;4.83;;;10.20;99.90;;;;;;4079066;28;20256;-92
2022/10/07 05:46:46;;;;;;;21.80;4.73;;;10.30;99.90;;;;;;4077358;29;20173;-96
2022/10/07 05:48:51;;;;;;;26.67;4.50;;;10.30;99.90;;;;;;4058544;29;20180;-93
2022/10/07 05:50:53;;;;;;;19.47;4.33;;;10.20;99.90;;;;;;4077490;29;20196;-93
2022/10/07 05:52:54;;;;;;;23.67;4.63;;;10.20;99.90;;;;;;4063471;29;20177;-91
2022/10/07 05:54:55;;;;;;;29.67;5.20;;;10.20;99.90;;;;;;4063697;29;20615;-92
2022/10/07 05:56:56;;;;;;;27.25;4.88;;;10.30;99.90;;;;;;4078710;29;20223;-91
2022/10/07 05:59:03;;;;;;;21.65;4.57;;;10.30;99.90;;;;;;4092773;29;20171;-96
2022/10/07 06:01:06;;;;;;;19.30;4.80;;;10.30;99.90;;;;;;4078586;29;20198;-92
2022/10/07 06:03:07;;;;;;;19.95;4.90;;;10.30;99.90;;;;;;4076953;29;20173;-96
2022/10/07 06:05:08;;;;;;;17.00;5.07;;;10.30;99.90;;;;;;4078141;29;20172;-92
2022/10/07 06:07:11;;;;;;;24.87;5.33;;;10.30;99.90;;;;;;4077223;29;20216;-95
2022/10/07 06:13:55;;;;;;;18.98;4.65;;;10.40;99.90;;;;;;4092961;29;20210;-94
2022/10/07 06:16:08;;;;;;;21.08;4.50;;;10.40;99.90;;;;;;4078024;29;20256;-92
2022/10/07 06:18:09;;;;;;;18.52;4.47;;;10.40;99.90;;;;;;4076124;29;20183;-96
2022/10/07 06:20:10;;;;;;;19.88;4.68;;;10.50;99.90;;;;;;4079132;29;20665;-92
2022/10/07 06:22:11;;;;;;;24.05;5.15;;;10.60;99.90;;;;;;4080111;29;20247;-91
2022/10/07 06:24:13;;;;;;;25.20;4.13;;;10.70;99.90;;;;;;4080069;29;20316;-94
2022/10/07 06:26:14;;;;;;;17.90;3.72;;;10.80;99.90;;;;;;4096364;29;20172;-91
2022/10/07 06:28:16;;;;;;;19.40;3.97;;;11.30;99.90;;;;;;4093669;28;20170;-96
2022/10/07 06:30:16;;;;;;;16.42;3.72;;;11.80;99.90;;;;;;4077009;29;20200;-93
2022/10/07 06:32:17;;;;;;;20.55;3.40;;;12.00;99.90;;;;;;4093820;29;20190;-96
2022/10/07 06:34:18;;;;;;;11.70;3.35;;;12.40;99.90;;;;;;4093403;29;20178;-91
2022/10/07 06:36:20;;;;;;;17.30;3.63;;;12.80;99.90;;;;;;4075076;29;20605;-92
2022/10/07 06:38:23;;;;;;;17.45;3.78;;;13.40;99.90;;;;;;4076875;29;20267;-92
2022/10/07 06:40:25;;;;;;;26.85;3.95;;;13.70;99.90;;;;;;4059825;29;20237;-92
2022/10/07 06:42:26;;;;;;;11.75;3.55;;;13.90;99.90;;;;;;4060215;29;20245;-94
2022/10/07 06:44:52;;;;;;;19.67;3.45;;;14.00;99.90;;;;;;4089949;29;20185;-92
2022/10/07 06:46:55;;;;;;;18.15;3.45;;;14.70;99.90;;;;;;4076202;29;20168;-92
2022/10/07 06:48:57;;;;;;;16.10;4.10;;;14.70;99.90;;;;;;4077029;29;20204;-91
2022/10/07 06:51:01;;;;;;;14.80;3.00;;;14.70;99.90;;;;;;4076517;29;20207;-92
2022/10/07 06:53:03;;;;;;;13.25;3.00;;;14.60;99.90;;;;;;4062781;29;20185;-94
2022/10/07 06:55:07;;;;;;;17.58;3.70;;;14.40;99.90;;;;;;4077927;29;20187;-92
2022/10/07 06:57:09;;;;;;;17.73;2.88;;;14.00;99.90;;;;;;4079169;29;20216;-96
2022/10/07 06:59:11;;;;;;;12.38;3.22;;;14.10;99.90;;;;;;4076640;29;20184;-92
2022/10/07 07:01:20;;;;;;;13.95;3.35;;;14.20;99.90;;;;;;4091813;29;20175;-95
2022/10/07 07:03:22;;;;;;;15.25;2.47;;;14.70;99.90;;;;;;4078818;29;20176;-95
2022/10/07 07:05:23;;;;;;;14.45;3.15;;;14.60;99.90;;;;;;4075359;28;20203;-92
2022/10/07 07:07:26;;;;;;;10.05;2.78;;;14.90;99.90;;;;;;4074499;29;20195;-95
2022/10/07 07:09:27;;;;;;;10.65;3.05;;;15.30;99.90;;;;;;4078048;29;20177;-96
2022/10/07 07:11:39;;;;;;;15.52;3.03;;;15.20;99.90;;;;;;4078567;28;20191;-91
2022/10/07 07:13:53;;;;;;;14.77;2.70;;;15.30;99.90;;;;;;4077975;29;20176;-93
2022/10/07 07:15:58;;;;;;;11.40;2.45;;;15.30;99.90;;;;;;4075053;29;20716;-93
2022/10/07 07:18:01;;;;;;;14.40;2.65;;;15.20;99.90;;;;;;4072796;29;20177;-96
2022/10/07 07:20:02;;;;;;;15.82;2.72;;;15.10;99.90;;;;;;4074106;29;20282;-92
2022/10/07 07:22:06;;;;;;;9.13;2.17;;;15.30;99.90;;;;;;4090595;29;20261;-91
2022/10/07 07:24:07;;;;;;;19.05;2.80;;;15.40;99.90;;;;;;4089544;29;20334;-96
2022/10/07 07:26:09;;;;;;;13.55;2.80;;;15.10;99.90;;;;;;4061636;29;20173;-96
2022/10/07 07:28:10;;;;;;;11.57;2.30;;;14.90;99.90;;;;;;4093330;29;20231;-94
2022/10/07 07:30:13;;;;;;;22.15;2.67;;;14.90;99.90;;;;;;4075091;29;20192;-92
2022/10/07 07:32:21;;;;;;;18.35;2.45;;;14.80;99.90;;;;;;4089780;29;20182;-92
2022/10/07 07:34:22;;;;;;;20.63;2.72;;;14.60;99.90;;;;;;4076894;29;20172;-96
2022/10/07 07:36:25;;;;;;;15.73;2.30;;;14.70;99.90;;;;;;4089977;29;20301;-95
2022/10/07 07:38:26;;;;;;;15.13;2.35;;;15.10;99.90;;;;;;4075785;29;20219;-96
2022/10/07 07:40:28;;;;;;;17.52;2.50;;;15.00;99.90;;;;;;4093736;29;20203;-96
2022/10/07 07:42:29;;;;;;;18.10;2.72;;;15.00;99.90;;;;;;4078982;28;20180;-96
2022/10/07 07:44:30;;;;;;;12.85;2.15;;;15.10;99.90;;;;;;4078858;29;20609;-96
2022/10/07 07:46:35;;;;;;;18.55;2.42;;;15.20;99.90;;;;;;4078176;29;20192;-92
2022/10/07 07:48:36;;;;;;;17.33;2.67;;;15.30;99.90;;;;;;4074869;29;20168;-93
2022/10/07 07:50:39;;;;;;;12.35;2.67;;;15.40;99.90;;;;;;4094243;29;20175;-93
2022/10/07 07:52:40;;;;;;;14.05;2.47;;;15.40;99.90;;;;;;4074294;29;20176;-92
2022/10/07 07:54:41;;;;;;;16.90;2.83;;;15.70;99.90;;;;;;4090749;29;20271;-95
2022/10/07 07:56:42;;;;;;;17.08;2.22;;;16.30;99.90;;;;;;4073097;29;20215;-94
2022/10/07 07:58:43;;;;;;;14.60;2.75;;;17.20;99.90;;;;;;4063631;29;20203;-92
2022/10/07 08:00:45;;;;;;;17.20;2.53;;;18.00;99.90;;;;;;4073908;29;20229;-92
2022/10/07 08:02:46;;;;;;;14.13;2.65;;;19.00;99.90;;;;;;4075400;28;20191;-93
2022/10/07 08:04:50;;;;;;;13.65;2.80;;;18.90;99.90;;;;;;4073918;29;20227;-94
2022/10/07 08:06:54;;;;;;;14.88;2.42;;;19.10;99.90;;;;;;4092062;29;20182;-96
2022/10/07 08:09:03;;;;;;;8.32;2.33;;;19.80;99.90;;;;;;4072709;29;20724;-92
2022/10/07 08:11:10;;;;;;;10.15;2.90;;;20.30;99.90;;;;;;4059232;29;20265;-94
2022/10/07 08:13:11;;;;;;;11.68;2.33;;;20.70;99.90;;;;;;4077968;29;20183;-93
2022/10/07 08:15:13;;;;;;;11.50;2.42;;;21.10;99.90;;;;;;4059991;29;20184;-93
2022/10/07 08:17:14;;;;;;;11.43;2.20;;;21.30;99.90;;;;;;4060459;29;20216;-96
2022/10/07 08:19:15;;;;;;;12.68;2.38;;;21.50;99.90;;;;;;4090801;29;20215;-92
2022/10/07 08:21:19;;;;;;;14.15;2.53;;;21.40;99.90;;;;;;4062294;29;20221;-95
2022/10/07 08:23:30;;;;;;;16.27;2.58;;;21.50;99.90;;;;;;4075827;29;20180;-95
2022/10/07 08:25:32;;;;;;;15.18;2.72;;;21.30;99.90;;;;;;4074668;29;20219;-89
2022/10/07 08:27:36;;;;;;;13.23;2.22;;;21.30;99.90;;;;;;4070137;29;20267;-90
2022/10/07 08:29:37;;;;;;;13.98;2.97;;;21.60;99.90;;;;;;4053169;29;20180;-90
2022/10/07 08:31:41;;;;;;;17.23;2.80;;;21.50;99.90;;;;;;4053577;29;20173;-92
2022/10/07 08:33:43;;;;;;;16.08;2.30;;;21.90;99.90;;;;;;4069578;29;20184;-89
2022/10/07 08:35:56;;;;;;;11.38;2.33;;;21.90;99.90;;;;;;4070347;29;20172;-90
2022/10/07 08:37:57;;;;;;;14.48;2.40;;;21.90;99.90;;;;;;4070344;29;20180;-91
2022/10/07 08:39:57;;;;;;;14.30;2.70;;;21.80;99.90;;;;;;4069585;29;20224;-91
2022/10/07 08:42:07;;;;;;;11.75;2.47;;;22.00;99.90;;;;;;4069015;29;20184;-90
2022/10/07 08:44:25;;;;;;;14.07;2.30;;;22.20;99.90;;;;;;4072837;29;20186;-91
2022/10/07 08:46:31;;;;;;;11.50;2.15;;;22.00;99.90;;;;;;4071675;29;20183;-90
2022/10/07 08:48:37;;;;;;;14.90;2.13;;;22.30;99.90;;;;;;4073931;29;20180;-90
2022/10/07 08:51:03;;;;;;;9.57;2.10;;;21.80;99.90;;;;;;4068862;29;20232;-89
2022/10/07 08:53:07;;;;;;;14.98;2.45;;;21.00;99.90;;;;;;4069011;29;20181;-90
2022/10/07 08:55:34;;;;;;;15.25;2.83;;;21.00;99.90;;;;;;4068650;29;20190;-89
2022/10/07 08:58:06;;;;;;;13.68;2.65;;;21.80;99.90;;;;;;4068811;29;20219;-93
2022/10/07 09:00:10;;;;;;;11.93;2.45;;;22.00;99.90;;;;;;4053782;29;20201;-91
2022/10/07 09:02:28;;;;;;;10.98;2.20;;;22.60;99.90;;;;;;4069669;29;20184;-90
2022/10/07 09:04:53;;;;;;;16.50;2.38;;;23.00;99.90;;;;;;4070094;29;20171;-91
2022/10/07 09:07:19;;;;;;;14.07;2.95;;;23.40;99.90;;;;;;4070260;29;20188;-94
2022/10/07 09:09:29;;;;;;;10.35;2.22;;;23.40;99.90;;;;;;4072810;29;20211;-90
2022/10/07 09:11:31;;;;;;;15.85;2.45;;;23.60;99.90;;;;;;4078747;29;20167;-93
2022/10/07 09:13:39;;;;;;;12.38;2.55;;;23.30;99.90;;;;;;4077274;29;20176;-90
2022/10/07 09:15:50;;;;;;;17.00;2.65;;;22.90;99.90;;;;;;4080253;29;20176;-90
2022/10/07 09:17:58;;;;;;;15.80;2.72;;;21.90;99.90;;;;;;4078888;29;20278;-92
2022/10/07 09:20:12;;;;;;;11.98;2.28;;;21.50;99.90;;;;;;4079771;29;20248;-92
2022/10/07 09:22:20;;;;;;;13.95;2.63;;;21.40;99.90;;;;;;4076155;29;20190;-90
2022/10/07 09:24:26;;;;;;;10.85;2.58;;;20.60;99.90;;;;;;4078594;29;20188;-92
2022/10/07 09:26:29;;;;;;;15.13;2.75;;;20.60;99.90;;;;;;4079524;28;20263;-91
2022/10/07 09:28:32;;;;;;;10.50;2.17;;;20.70;99.90;;;;;;4080318;29;20176;-92
2022/10/07 09:30:32;;;;;;;13.35;2.78;;;21.10;99.90;;;;;;4081210;29;20215;-90
2022/10/07 09:32:39;;;;;;;14.07;2.40;;;20.80;99.90;;;;;;4098719;29;20172;-90
2022/10/07 09:34:40;;;;;;;12.68;2.22;;;20.50;99.90;;;;;;4080203;28;20205;-90
2022/10/07 09:37:15;;;;;;;20.38;2.60;;;20.90;99.90;;;;;;4083113;28;20236;-89
2022/10/07 09:39:22;;;;;;;15.15;2.28;;;20.60;99.90;;;;;;4097951;28;20183;-94
2022/10/07 09:41:31;;;;;;;17.63;2.28;;;19.90;99.90;;;;;;4092518;29;20182;-90
2022/10/07 09:43:34;;;;;;;12.43;2.30;;;19.60;99.90;;;;;;4079148;29;20186;-90
2022/10/07 09:45:39;;;;;;;13.70;2.50;;;19.40;99.90;;;;;;4078569;29;20259;-90
2022/10/07 09:47:40;;;;;;;10.65;2.17;;;19.00;99.90;;;;;;4097500;28;20180;-94
2022/10/07 09:49:45;;;;;;;14.88;2.65;;;18.80;99.90;;;;;;4096580;28;20195;-90
2022/10/07 09:52:20;;;;;;;14.48;2.30;;;18.70;99.90;;;;;;4081313;28;20171;-93
2022/10/07 09:54:33;;;;;;;11.45;2.28;;;18.20;99.90;;;;;;4079698;28;20224;-93
2022/10/07 09:56:56;;;;;;;15.18;2.83;;;17.70;99.90;;;;;;4095134;28;20222;-91
2022/10/07 09:59:15;;;;;;;14.77;2.40;;;17.30;99.90;;;;;;4079920;28;20159;-94
2022/10/07 10:01:15;;;;;;;14.30;2.70;;;17.80;99.90;;;;;;4080465;28;20212;-92
2022/10/07 10:03:17;;;;;;;12.32;2.35;;;17.70;99.90;;;;;;4081766;28;20180;-93
2022/10/07 10:05:22;;;;;;;15.85;2.75;;;17.80;99.90;;;;;;4081481;29;20187;-96
2022/10/07 10:07:35;;;;;;;15.82;2.65;;;17.90;99.90;;;;;;4081210;28;20249;-93
2022/10/07 10:09:57;;;;;;;11.45;2.17;;;18.00;99.90;;;;;;4084350;28;20170;-95
2022/10/07 10:12:07;;;;;;;15.90;2.47;;;18.30;99.90;;;;;;4080738;28;20232;-96
2022/10/07 10:14:46;;;;;;;15.95;2.53;;;18.50;99.90;;;;;;4082930;28;20203;-94
2022/10/07 10:16:47;;;;;;;20.20;2.35;;;18.60;99.90;;;;;;4076869;28;20220;-95
2022/10/07 10:18:54;;;;;;;17.20;2.42;;;18.50;99.90;;;;;;4078716;28;20701;-91
2022/10/07 10:21:13;;;;;;;11.07;2.08;;;18.30;99.90;;;;;;4097447;28;20183;-93
2022/10/07 10:23:32;;;;;;;14.20;2.10;;;18.40;99.90;;;;;;4075982;29;20259;-92
2022/10/07 10:28:26;;;;;;;17.23;1.92;;;18.30;99.90;;;;;;4095790;28;20193;-93
2022/10/07 10:30:38;;;;;;;21.13;1.98;;;18.50;99.90;;;;;;4094620;29;20220;-94
2022/10/07 10:32:48;;;;;;;10.60;1.70;;;18.60;99.90;;;;;;4095734;28;20170;-93
2022/10/07 10:35:12;;;;;;;12.07;1.85;;;18.70;99.90;;;;;;4083024;28;20247;-93
2022/10/07 10:37:34;;;;;;;11.65;1.63;;;18.70;99.90;;;;;;4078140;28;20287;-93
2022/10/07 10:40:14;;;;;;;15.95;2.17;;;18.80;99.90;;;;;;4077053;29;20192;-95
2022/10/07 10:42:21;;;;;;;13.52;1.92;;;18.60;99.90;;;;;;4077841;28;20195;-95
2022/10/07 10:44:31;;;;;;;18.65;2.53;;;18.50;99.90;;;;;;4076629;29;20656;-91
2022/10/07 10:47:11;;;;;;;11.35;1.60;;;18.50;99.90;;;;;;4078586;28;20184;-93
2022/10/07 10:49:19;;;;;;;15.73;2.30;;;18.70;99.90;;;;;;4077899;28;20195;-93
2022/10/07 10:51:54;;;;;;;17.77;2.33;;;18.50;99.90;;;;;;4076099;28;20699;-92
2022/10/07 10:54:17;;;;;;;15.98;2.22;;;18.40;99.90;;;;;;4095329;28;20234;-93
2022/10/07 10:57:00;;;;;;;14.48;2.20;;;18.50;99.90;;;;;;4081430;29;20228;-93